sensor_id;sensor_type;location;lat;lon;timestamp;P1;durP1;ratioP1;P2;durP2;ratioP2
19645;SDS011;9971;52.446;13.452;2023-01-10T00:03:15;1.77;;;1.40;;
19645;SDS011;9971;52.446;13.452;2023-01-10T00:08:17;2.33;;;2.03;;
19645;SDS011;9971;52.446;13.452;2023-01-10T00:13:20;1.87;;;1.52;;
19645;SDS011;9971;52.446;13.452;2023-01-10T00:18:23;1.40;;;1.30;;
19645;SDS011;9971;52.446;13.452;2023-01-10T00:23:25;3.00;;;1.62;;
19645;SDS011;9971;52.446;13.452;2023-01-10T00:28:28;2.62;;;1.95;;
19645;SDS011;9971;52.446;13.452;2023-01-10T00:33:30;2.10;;;1.90;;
19645;SDS011;9971;52.446;13.452;2023-01-10T00:38:33;2.47;;;1.90;;
19645;SDS011;9971;52.446;13.452;2023-01-10T00:43:35;2.37;;;2.17;;
19645;SDS011;9971;52.446;13.452;2023-01-10T00:48:43;2.23;;;2.03;;
19645;SDS011;9971;52.446;13.452;2023-01-10T00:53:46;1.95;;;1.70;;
19645;SDS011;9971;52.446;13.452;2023-01-10T00:58:48;2.40;;;1.70;;
19645;SDS011;9971;52.446;13.452;2023-01-10T01:03:50;2.33;;;1.95;;
19645;SDS011;9971;52.446;13.452;2023-01-10T01:08:53;2.45;;;1.87;;
19645;SDS011;9971;52.446;13.452;2023-01-10T01:13:55;2.85;;;2.00;;
19645;SDS011;9971;52.446;13.452;2023-01-10T01:18:58;2.60;;;1.90;;
19645;SDS011;9971;52.446;13.452;2023-01-10T01:24:00;2.27;;;2.10;;
19645;SDS011;9971;52.446;13.452;2023-01-10T01:29:03;4.60;;;2.33;;
19645;SDS011;9971;52.446;13.452;2023-01-10T01:34:05;2.20;;;2.00;;
19645;SDS011;9971;52.446;13.452;2023-01-10T01:39:07;1.87;;;1.77;;
19645;SDS011;9971;52.446;13.452;2023-01-10T01:44:13;2.00;;;1.80;;
19645;SDS011;9971;52.446;13.452;2023-01-10T01:49:16;2.37;;;1.90;;
19645;SDS011;9971;52.446;13.452;2023-01-10T01:54:17;2.33;;;2.12;;
19645;SDS011;9971;52.446;13.452;2023-01-10T01:59:20;4.87;;;2.37;;
19645;SDS011;9971;52.446;13.452;2023-01-10T02:04:23;2.40;;;2.00;;
19645;SDS011;9971;52.446;13.452;2023-01-10T02:09:31;3.83;;;2.33;;
19645;SDS011;9971;52.446;13.452;2023-01-10T02:14:35;2.80;;;2.20;;
19645;SDS011;9971;52.446;13.452;2023-01-10T02:24:57;2.90;;;2.23;;
19645;SDS011;9971;52.446;13.452;2023-01-10T02:35:12;2.27;;;2.10;;
19645;SDS011;9971;52.446;13.452;2023-01-10T02:40:19;2.40;;;2.10;;
19645;SDS011;9971;52.446;13.452;2023-01-10T02:45:25;2.92;;;2.17;;
19645;SDS011;9971;52.446;13.452;2023-01-10T02:50:35;1.93;;;1.80;;
19645;SDS011;9971;52.446;13.452;2023-01-10T02:55:37;2.67;;;2.20;;
19645;SDS011;9971;52.446;13.452;2023-01-10T03:00:43;2.23;;;2.03;;
19645;SDS011;9971;52.446;13.452;2023-01-10T03:11:03;5.53;;;2.00;;
19645;SDS011;9971;52.446;13.452;2023-01-10T03:16:07;2.85;;;2.02;;
19645;SDS011;9971;52.446;13.452;2023-01-10T03:21:07;2.63;;;2.23;;
19645;SDS011;9971;52.446;13.452;2023-01-10T03:26:09;2.73;;;2.33;;
19645;SDS011;9971;52.446;13.452;2023-01-10T03:31:13;2.47;;;2.20;;
19645;SDS011;9971;52.446;13.452;2023-01-10T03:36:17;4.60;;;2.47;;
19645;SDS011;9971;52.446;13.452;2023-01-10T03:41:24;4.67;;;2.50;;
19645;SDS011;9971;52.446;13.452;2023-01-10T03:46:26;2.80;;;2.40;;
19645;SDS011;9971;52.446;13.452;2023-01-10T03:51:27;4.60;;;2.93;;
19645;SDS011;9971;52.446;13.452;2023-01-10T03:56:29;4.03;;;2.80;;
19645;SDS011;9971;52.446;13.452;2023-01-10T04:01:31;4.53;;;3.15;;
19645;SDS011;9971;52.446;13.452;2023-01-10T04:06:33;4.00;;;2.90;;
19645;SDS011;9971;52.446;13.452;2023-01-10T04:11:36;4.03;;;3.23;;
19645;SDS011;9971;52.446;13.452;2023-01-10T04:16:38;4.97;;;3.27;;
19645;SDS011;9971;52.446;13.452;2023-01-10T04:21:40;4.90;;;3.17;;
19645;SDS011;9971;52.446;13.452;2023-01-10T04:26:43;4.83;;;3.83;;
19645;SDS011;9971;52.446;13.452;2023-01-10T04:31:45;5.60;;;3.42;;
19645;SDS011;9971;52.446;13.452;2023-01-10T04:36:48;6.10;;;3.77;;
19645;SDS011;9971;52.446;13.452;2023-01-10T04:41:50;4.30;;;3.33;;
19645;SDS011;9971;52.446;13.452;2023-01-10T04:46:53;6.15;;;3.95;;
19645;SDS011;9971;52.446;13.452;2023-01-10T04:51:55;7.45;;;3.75;;
19645;SDS011;9971;52.446;13.452;2023-01-10T04:56:58;5.25;;;3.77;;
19645;SDS011;9971;52.446;13.452;2023-01-10T05:02:04;6.57;;;3.53;;
19645;SDS011;9971;52.446;13.452;2023-01-10T05:07:06;6.10;;;3.80;;
19645;SDS011;9971;52.446;13.452;2023-01-10T05:12:09;4.72;;;3.60;;
19645;SDS011;9971;52.446;13.452;2023-01-10T05:17:11;7.80;;;3.30;;
19645;SDS011;9971;52.446;13.452;2023-01-10T05:22:14;6.12;;;3.52;;
19645;SDS011;9971;52.446;13.452;2023-01-10T05:27:16;6.07;;;3.60;;
19645;SDS011;9971;52.446;13.452;2023-01-10T05:32:18;5.47;;;3.35;;
19645;SDS011;9971;52.446;13.452;2023-01-10T05:37:21;5.95;;;3.83;;
19645;SDS011;9971;52.446;13.452;2023-01-10T05:42:23;5.00;;;3.20;;
19645;SDS011;9971;52.446;13.452;2023-01-10T05:47:26;7.50;;;3.72;;
19645;SDS011;9971;52.446;13.452;2023-01-10T05:52:28;6.10;;;3.75;;
19645;SDS011;9971;52.446;13.452;2023-01-10T05:57:31;6.42;;;3.47;;
19645;SDS011;9971;52.446;13.452;2023-01-10T06:02:33;7.87;;;3.87;;
19645;SDS011;9971;52.446;13.452;2023-01-10T06:07:36;8.88;;;6.35;;
19645;SDS011;9971;52.446;13.452;2023-01-10T06:12:38;12.18;;;5.55;;
19645;SDS011;9971;52.446;13.452;2023-01-10T06:17:40;8.07;;;4.53;;
19645;SDS011;9971;52.446;13.452;2023-01-10T06:22:42;10.28;;;5.33;;
19645;SDS011;9971;52.446;13.452;2023-01-10T06:27:45;8.28;;;4.12;;
19645;SDS011;9971;52.446;13.452;2023-01-10T06:32:47;7.70;;;4.10;;
19645;SDS011;9971;52.446;13.452;2023-01-10T06:37:50;7.95;;;4.10;;
19645;SDS011;9971;52.446;13.452;2023-01-10T06:42:52;8.98;;;3.87;;
19645;SDS011;9971;52.446;13.452;2023-01-10T06:47:55;7.90;;;4.47;;
19645;SDS011;9971;52.446;13.452;2023-01-10T06:52:57;9.68;;;4.15;;
19645;SDS011;9971;52.446;13.452;2023-01-10T06:58:00;6.80;;;4.13;;
19645;SDS011;9971;52.446;13.452;2023-01-10T07:03:01;8.23;;;4.53;;
19645;SDS011;9971;52.446;13.452;2023-01-10T07:08:04;6.87;;;4.20;;
19645;SDS011;9971;52.446;13.452;2023-01-10T07:13:06;9.93;;;4.62;;
19645;SDS011;9971;52.446;13.452;2023-01-10T07:18:09;6.60;;;4.23;;
19645;SDS011;9971;52.446;13.452;2023-01-10T07:23:11;8.38;;;5.12;;
19645;SDS011;9971;52.446;13.452;2023-01-10T07:28:14;8.48;;;4.90;;
19645;SDS011;9971;52.446;13.452;2023-01-10T07:33:16;6.50;;;4.55;;
19645;SDS011;9971;52.446;13.452;2023-01-10T07:38:19;10.13;;;4.90;;
19645;SDS011;9971;52.446;13.452;2023-01-10T07:43:21;6.57;;;4.60;;
19645;SDS011;9971;52.446;13.452;2023-01-10T07:48:24;10.88;;;5.00;;
19645;SDS011;9971;52.446;13.452;2023-01-10T07:53:26;6.47;;;4.60;;
19645;SDS011;9971;52.446;13.452;2023-01-10T07:58:28;7.93;;;5.50;;
19645;SDS011;9971;52.446;13.452;2023-01-10T08:03:30;6.42;;;4.90;;
19645;SDS011;9971;52.446;13.452;2023-01-10T08:08:32;5.43;;;4.30;;
19645;SDS011;9971;52.446;13.452;2023-01-10T08:13:34;8.30;;;4.87;;
19645;SDS011;9971;52.446;13.452;2023-01-10T08:18:37;9.15;;;4.67;;
19645;SDS011;9971;52.446;13.452;2023-01-10T08:23:39;10.25;;;4.83;;
19645;SDS011;9971;52.446;13.452;2023-01-10T08:28:41;7.75;;;4.90;;
19645;SDS011;9971;52.446;13.452;2023-01-10T08:33:44;8.85;;;5.53;;
19645;SDS011;9971;52.446;13.452;2023-01-10T08:38:47;8.40;;;5.10;;
19645;SDS011;9971;52.446;13.452;2023-01-10T08:43:49;6.83;;;4.97;;
19645;SDS011;9971;52.446;13.452;2023-01-10T08:48:51;7.17;;;4.23;;
19645;SDS011;9971;52.446;13.452;2023-01-10T08:53:53;9.03;;;5.30;;
19645;SDS011;9971;52.446;13.452;2023-01-10T08:58:56;8.87;;;5.53;;
19645;SDS011;9971;52.446;13.452;2023-01-10T09:03:58;9.83;;;4.65;;
19645;SDS011;9971;52.446;13.452;2023-01-10T09:09:01;7.83;;;4.60;;
19645;SDS011;9971;52.446;13.452;2023-01-10T09:14:03;6.47;;;4.67;;
19645;SDS011;9971;52.446;13.452;2023-01-10T09:19:05;7.70;;;5.08;;
19645;SDS011;9971;52.446;13.452;2023-01-10T09:24:07;6.35;;;5.00;;
19645;SDS011;9971;52.446;13.452;2023-01-10T09:29:10;7.87;;;5.60;;
19645;SDS011;9971;52.446;13.452;2023-01-10T09:34:12;6.72;;;4.30;;
19645;SDS011;9971;52.446;13.452;2023-01-10T09:39:14;4.85;;;3.52;;
19645;SDS011;9971;52.446;13.452;2023-01-10T09:44:20;4.97;;;3.45;;
19645;SDS011;9971;52.446;13.452;2023-01-10T09:49:40;5.10;;;4.40;;
19645;SDS011;9971;52.446;13.452;2023-01-10T09:54:49;8.00;;;4.17;;
19645;SDS011;9971;52.446;13.452;2023-01-10T09:59:51;6.20;;;4.13;;
19645;SDS011;9971;52.446;13.452;2023-01-10T10:05:28;6.63;;;4.10;;
19645;SDS011;9971;52.446;13.452;2023-01-10T10:10:15;7.33;;;4.30;;
19645;SDS011;9971;52.446;13.452;2023-01-10T10:15:19;6.17;;;4.43;;
19645;SDS011;9971;52.446;13.452;2023-01-10T10:20:27;7.37;;;4.07;;
19645;SDS011;9971;52.446;13.452;2023-01-10T10:30:55;6.60;;;3.80;;
19645;SDS011;9971;52.446;13.452;2023-01-10T10:35:59;6.73;;;3.73;;
19645;SDS011;9971;52.446;13.452;2023-01-10T10:41:00;7.15;;;3.87;;
19645;SDS011;9971;52.446;13.452;2023-01-10T10:46:06;5.67;;;3.40;;
19645;SDS011;9971;52.446;13.452;2023-01-10T10:56:22;5.70;;;3.27;;
19645;SDS011;9971;52.446;13.452;2023-01-10T11:01:23;4.90;;;3.60;;
19645;SDS011;9971;52.446;13.452;2023-01-10T11:06:25;6.50;;;3.73;;
19645;SDS011;9971;52.446;13.452;2023-01-10T11:11:30;7.77;;;3.50;;
19645;SDS011;9971;52.446;13.452;2023-01-10T11:16:32;8.40;;;4.43;;
19645;SDS011;9971;52.446;13.452;2023-01-10T11:21:34;11.20;;;4.97;;
19645;SDS011;9971;52.446;13.452;2023-01-10T11:26:36;5.57;;;3.40;;
19645;SDS011;9971;52.446;13.452;2023-01-10T11:31:38;8.53;;;3.30;;
19645;SDS011;9971;52.446;13.452;2023-01-10T11:37:01;6.27;;;3.00;;
19645;SDS011;9971;52.446;13.452;2023-01-10T11:47:15;9.47;;;3.70;;
19645;SDS011;9971;52.446;13.452;2023-01-10T11:52:25;6.30;;;2.67;;
19645;SDS011;9971;52.446;13.452;2023-01-10T11:57:28;9.60;;;3.67;;
19645;SDS011;9971;52.446;13.452;2023-01-10T12:02:31;13.40;;;4.37;;
19645;SDS011;9971;52.446;13.452;2023-01-10T12:08:04;5.55;;;2.70;;
19645;SDS011;9971;52.446;13.452;2023-01-10T12:12:55;7.15;;;2.60;;
19645;SDS011;9971;52.446;13.452;2023-01-10T12:17:58;5.47;;;2.80;;
19645;SDS011;9971;52.446;13.452;2023-01-10T12:23:02;8.50;;;2.63;;
19645;SDS011;9971;52.446;13.452;2023-01-10T12:28:02;6.17;;;2.43;;
19645;SDS011;9971;52.446;13.452;2023-01-10T12:33:06;7.42;;;2.20;;
19645;SDS011;9971;52.446;13.452;2023-01-10T12:38:16;5.47;;;2.80;;
19645;SDS011;9971;52.446;13.452;2023-01-10T12:43:34;5.23;;;2.37;;
19645;SDS011;9971;52.446;13.452;2023-01-10T12:48:48;10.30;;;3.00;;
19645;SDS011;9971;52.446;13.452;2023-01-10T12:53:54;6.70;;;2.20;;
19645;SDS011;9971;52.446;13.452;2023-01-10T12:58:57;5.22;;;2.08;;
19645;SDS011;9971;52.446;13.452;2023-01-10T13:04:00;10.00;;;3.22;;
19645;SDS011;9971;52.446;13.452;2023-01-10T13:09:06;7.27;;;2.07;;
19645;SDS011;9971;52.446;13.452;2023-01-10T13:14:13;6.00;;;2.17;;
19645;SDS011;9971;52.446;13.452;2023-01-10T13:19:23;7.17;;;2.80;;
19645;SDS011;9971;52.446;13.452;2023-01-10T13:24:26;7.27;;;2.70;;
19645;SDS011;9971;52.446;13.452;2023-01-10T13:29:29;7.62;;;2.40;;
19645;SDS011;9971;52.446;13.452;2023-01-10T13:34:45;20.53;;;5.67;;
19645;SDS011;9971;52.446;13.452;2023-01-10T13:39:53;10.17;;;2.57;;
19645;SDS011;9971;52.446;13.452;2023-01-10T13:45:15;6.60;;;2.33;;
19645;SDS011;9971;52.446;13.452;2023-01-10T14:01:00;8.57;;;2.47;;
19645;SDS011;9971;52.446;13.452;2023-01-10T14:06:40;7.13;;;2.57;;
19645;SDS011;9971;52.446;13.452;2023-01-10T14:11:51;6.17;;;2.40;;
19645;SDS011;9971;52.446;13.452;2023-01-10T14:16:54;5.00;;;2.37;;
19645;SDS011;9971;52.446;13.452;2023-01-10T14:21:56;6.90;;;2.20;;
19645;SDS011;9971;52.446;13.452;2023-01-10T14:26:58;7.20;;;2.30;;
19645;SDS011;9971;52.446;13.452;2023-01-10T14:32:00;4.03;;;2.37;;
19645;SDS011;9971;52.446;13.452;2023-01-10T14:37:05;4.83;;;2.00;;
19645;SDS011;9971;52.446;13.452;2023-01-10T14:42:07;5.00;;;2.27;;
19645;SDS011;9971;52.446;13.452;2023-01-10T14:52:23;6.87;;;2.23;;
19645;SDS011;9971;52.446;13.452;2023-01-10T14:57:25;7.60;;;2.47;;
19645;SDS011;9971;52.446;13.452;2023-01-10T15:02:27;7.53;;;3.33;;
19645;SDS011;9971;52.446;13.452;2023-01-10T15:07:29;6.90;;;2.47;;
19645;SDS011;9971;52.446;13.452;2023-01-10T15:12:32;8.10;;;2.83;;
19645;SDS011;9971;52.446;13.452;2023-01-10T15:17:34;11.87;;;4.50;;
19645;SDS011;9971;52.446;13.452;2023-01-10T15:22:36;8.20;;;3.77;;
19645;SDS011;9971;52.446;13.452;2023-01-10T15:27:41;5.47;;;2.62;;
19645;SDS011;9971;52.446;13.452;2023-01-10T15:32:40;6.87;;;2.60;;
19645;SDS011;9971;52.446;13.452;2023-01-10T15:37:48;3.63;;;2.30;;
19645;SDS011;9971;52.446;13.452;2023-01-10T15:42:46;6.90;;;2.60;;
19645;SDS011;9971;52.446;13.452;2023-01-10T15:47:50;6.90;;;2.80;;
19645;SDS011;9971;52.446;13.452;2023-01-10T15:52:54;12.78;;;5.12;;
19645;SDS011;9971;52.446;13.452;2023-01-10T15:57:54;4.13;;;2.40;;
19645;SDS011;9971;52.446;13.452;2023-01-10T16:02:57;4.83;;;2.65;;
19645;SDS011;9971;52.446;13.452;2023-01-10T16:07:59;10.07;;;3.93;;
19645;SDS011;9971;52.446;13.452;2023-01-10T16:13:09;7.33;;;2.77;;
19645;SDS011;9971;52.446;13.452;2023-01-10T16:18:17;7.20;;;2.90;;
19645;SDS011;9971;52.446;13.452;2023-01-10T16:23:20;8.75;;;3.92;;
19645;SDS011;9971;52.446;13.452;2023-01-10T16:28:23;16.53;;;5.27;;
19645;SDS011;9971;52.446;13.452;2023-01-10T16:33:25;15.60;;;4.90;;
19645;SDS011;9971;52.446;13.452;2023-01-10T16:38:27;6.10;;;2.67;;
19645;SDS011;9971;52.446;13.452;2023-01-10T16:43:30;13.53;;;4.60;;
19645;SDS011;9971;52.446;13.452;2023-01-10T16:48:32;7.97;;;2.58;;
19645;SDS011;9971;52.446;13.452;2023-01-10T16:53:35;4.92;;;3.10;;
19645;SDS011;9971;52.446;13.452;2023-01-10T16:58:37;13.98;;;4.78;;
19645;SDS011;9971;52.446;13.452;2023-01-10T17:03:40;6.25;;;3.20;;
19645;SDS011;9971;52.446;13.452;2023-01-10T17:08:42;8.67;;;3.63;;
19645;SDS011;9971;52.446;13.452;2023-01-10T17:13:44;9.30;;;3.37;;
19645;SDS011;9971;52.446;13.452;2023-01-10T17:18:46;6.50;;;3.50;;
19645;SDS011;9971;52.446;13.452;2023-01-10T17:23:49;8.27;;;3.53;;
19645;SDS011;9971;52.446;13.452;2023-01-10T17:28:50;9.43;;;3.75;;
19645;SDS011;9971;52.446;13.452;2023-01-10T17:33:53;4.60;;;3.02;;
19645;SDS011;9971;52.446;13.452;2023-01-10T17:38:55;5.67;;;2.98;;
19645;SDS011;9971;52.446;13.452;2023-01-10T17:43:58;4.60;;;2.60;;
19645;SDS011;9971;52.446;13.452;2023-01-10T17:49:00;5.90;;;2.58;;
19645;SDS011;9971;52.446;13.452;2023-01-10T17:54:02;4.17;;;2.80;;
19645;SDS011;9971;52.446;13.452;2023-01-10T17:59:05;7.95;;;3.30;;
19645;SDS011;9971;52.446;13.452;2023-01-10T18:04:07;6.93;;;4.53;;
19645;SDS011;9971;52.446;13.452;2023-01-10T18:09:10;3.80;;;3.22;;
19645;SDS011;9971;52.446;13.452;2023-01-10T18:14:12;4.87;;;2.87;;
19645;SDS011;9971;52.446;13.452;2023-01-10T18:19:20;6.60;;;2.80;;
19645;SDS011;9971;52.446;13.452;2023-01-10T18:24:23;4.72;;;3.20;;
19645;SDS011;9971;52.446;13.452;2023-01-10T18:29:25;9.00;;;3.25;;
19645;SDS011;9971;52.446;13.452;2023-01-10T18:34:28;5.83;;;3.00;;
19645;SDS011;9971;52.446;13.452;2023-01-10T18:39:30;5.20;;;3.10;;
19645;SDS011;9971;52.446;13.452;2023-01-10T18:44:33;5.58;;;3.52;;
19645;SDS011;9971;52.446;13.452;2023-01-10T18:49:35;4.70;;;2.90;;
19645;SDS011;9971;52.446;13.452;2023-01-10T18:54:38;4.50;;;2.80;;
19645;SDS011;9971;52.446;13.452;2023-01-10T18:59:40;5.17;;;3.35;;
19645;SDS011;9971;52.446;13.452;2023-01-10T19:04:43;4.78;;;3.40;;
19645;SDS011;9971;52.446;13.452;2023-01-10T19:09:45;8.35;;;4.15;;
19645;SDS011;9971;52.446;13.452;2023-01-10T19:14:48;7.25;;;3.52;;
19645;SDS011;9971;52.446;13.452;2023-01-10T19:19:52;6.40;;;3.25;;
19645;SDS011;9971;52.446;13.452;2023-01-10T19:24:52;10.37;;;4.70;;
19645;SDS011;9971;52.446;13.452;2023-01-10T19:29:55;6.22;;;3.40;;
19645;SDS011;9971;52.446;13.452;2023-01-10T19:34:57;6.85;;;4.22;;
19645;SDS011;9971;52.446;13.452;2023-01-10T19:40:00;7.45;;;3.05;;
19645;SDS011;9971;52.446;13.452;2023-01-10T19:45:03;5.70;;;3.10;;
19645;SDS011;9971;52.446;13.452;2023-01-10T19:50:06;4.93;;;3.00;;
19645;SDS011;9971;52.446;13.452;2023-01-10T19:55:09;5.15;;;3.22;;
19645;SDS011;9971;52.446;13.452;2023-01-10T20:00:11;6.90;;;2.90;;
19645;SDS011;9971;52.446;13.452;2023-01-10T20:05:14;4.78;;;3.00;;
19645;SDS011;9971;52.446;13.452;2023-01-10T20:10:17;5.80;;;2.85;;
19645;SDS011;9971;52.446;13.452;2023-01-10T20:15:19;5.77;;;3.10;;
19645;SDS011;9971;52.446;13.452;2023-01-10T20:20:21;6.87;;;2.62;;
19645;SDS011;9971;52.446;13.452;2023-01-10T20:25:24;5.25;;;2.83;;
19645;SDS011;9971;52.446;13.452;2023-01-10T20:30:26;5.47;;;2.65;;
19645;SDS011;9971;52.446;13.452;2023-01-10T20:35:29;5.12;;;3.17;;
19645;SDS011;9971;52.446;13.452;2023-01-10T20:40:31;4.85;;;2.67;;
19645;SDS011;9971;52.446;13.452;2023-01-10T20:45:33;4.77;;;3.37;;
19645;SDS011;9971;52.446;13.452;2023-01-10T20:50:36;3.95;;;2.35;;
19645;SDS011;9971;52.446;13.452;2023-01-10T20:55:38;6.90;;;3.00;;
19645;SDS011;9971;52.446;13.452;2023-01-10T21:00:40;4.92;;;2.95;;
19645;SDS011;9971;52.446;13.452;2023-01-10T21:05:47;3.83;;;2.50;;
19645;SDS011;9971;52.446;13.452;2023-01-10T21:10:45;6.60;;;2.47;;
19645;SDS011;9971;52.446;13.452;2023-01-10T21:15:47;7.73;;;3.40;;
19645;SDS011;9971;52.446;13.452;2023-01-10T21:20:51;6.03;;;2.97;;
19645;SDS011;9971;52.446;13.452;2023-01-10T21:25:52;5.78;;;2.72;;
19645;SDS011;9971;52.446;13.452;2023-01-10T21:30:54;9.07;;;2.40;;
19645;SDS011;9971;52.446;13.452;2023-01-10T21:35:56;6.62;;;2.62;;
19645;SDS011;9971;52.446;13.452;2023-01-10T21:46:06;3.63;;;2.53;;
19645;SDS011;9971;52.446;13.452;2023-01-10T21:51:09;4.53;;;2.25;;
19645;SDS011;9971;52.446;13.452;2023-01-10T21:56:11;5.15;;;2.75;;
19645;SDS011;9971;52.446;13.452;2023-01-10T22:01:14;5.85;;;2.67;;
19645;SDS011;9971;52.446;13.452;2023-01-10T22:06:16;4.08;;;2.62;;
19645;SDS011;9971;52.446;13.452;2023-01-10T22:11:18;4.50;;;2.70;;
19645;SDS011;9971;52.446;13.452;2023-01-10T22:16:21;4.15;;;2.65;;
19645;SDS011;9971;52.446;13.452;2023-01-10T22:21:23;3.60;;;2.53;;
19645;SDS011;9971;52.446;13.452;2023-01-10T22:26:26;4.65;;;2.65;;
19645;SDS011;9971;52.446;13.452;2023-01-10T22:31:28;4.70;;;2.10;;
19645;SDS011;9971;52.446;13.452;2023-01-10T22:36:31;4.10;;;2.15;;
19645;SDS011;9971;52.446;13.452;2023-01-10T22:41:33;5.37;;;3.02;;
19645;SDS011;9971;52.446;13.452;2023-01-10T22:46:35;4.23;;;2.20;;
19645;SDS011;9971;52.446;13.452;2023-01-10T22:51:38;5.42;;;2.42;;
19645;SDS011;9971;52.446;13.452;2023-01-10T22:56:41;3.72;;;2.15;;
19645;SDS011;9971;52.446;13.452;2023-01-10T23:01:44;6.22;;;2.42;;
19645;SDS011;9971;52.446;13.452;2023-01-10T23:06:47;4.23;;;1.90;;
19645;SDS011;9971;52.446;13.452;2023-01-10T23:11:49;4.42;;;1.72;;
19645;SDS011;9971;52.446;13.452;2023-01-10T23:16:52;4.37;;;1.95;;
19645;SDS011;9971;52.446;13.452;2023-01-10T23:21:54;2.70;;;1.90;;
19645;SDS011;9971;52.446;13.452;2023-01-10T23:26:56;5.20;;;1.77;;
19645;SDS011;9971;52.446;13.452;2023-01-10T23:31:59;6.10;;;2.05;;
19645;SDS011;9971;52.446;13.452;2023-01-10T23:37:02;4.58;;;1.92;;
19645;SDS011;9971;52.446;13.452;2023-01-10T23:42:03;3.57;;;1.90;;
19645;SDS011;9971;52.446;13.452;2023-01-10T23:47:06;4.25;;;1.98;;
19645;SDS011;9971;52.446;13.452;2023-01-10T23:52:08;4.17;;;2.03;;
19645;SDS011;9971;52.446;13.452;2023-01-10T23:57:11;5.78;;;2.00;;
